sensor_id;sensor_type;location;lat;lon;timestamp;temperature;humidity
39255;DHT22;24957;51.386;-2.352;2022-07-06T00:01:17;16.30;99.90
39255;DHT22;24957;51.386;-2.352;2022-07-06T00:03:46;16.20;99.90
39255;DHT22;24957;51.386;-2.352;2022-07-06T00:06:14;15.90;99.90
39255;DHT22;24957;51.386;-2.352;2022-07-06T00:08:42;15.70;99.90
39255;DHT22;24957;51.386;-2.352;2022-07-06T00:11:08;15.60;99.90
39255;DHT22;24957;51.386;-2.352;2022-07-06T00:13:33;15.60;99.90
39255;DHT22;24957;51.386;-2.352;2022-07-06T00:15:59;15.70;99.90
39255;DHT22;24957;51.386;-2.352;2022-07-06T00:18:24;15.80;99.90
39255;DHT22;24957;51.386;-2.352;2022-07-06T00:20:50;15.70;99.90
39255;DHT22;24957;51.386;-2.352;2022-07-06T00:23:15;15.80;99.90
39255;DHT22;24957;51.386;-2.352;2022-07-06T00:25:41;15.70;99.90
39255;DHT22;24957;51.386;-2.352;2022-07-06T00:28:07;15.70;99.90
39255;DHT22;24957;51.386;-2.352;2022-07-06T00:30:32;15.60;99.90
39255;DHT22;24957;51.386;-2.352;2022-07-06T00:32:58;15.50;99.90
39255;DHT22;24957;51.386;-2.352;2022-07-06T00:35:24;15.50;99.90
39255;DHT22;24957;51.386;-2.352;2022-07-06T00:37:50;15.40;99.90
39255;DHT22;24957;51.386;-2.352;2022-07-06T00:40:15;15.40;99.90
39255;DHT22;24957;51.386;-2.352;2022-07-06T00:45:06;15.30;99.90
39255;DHT22;24957;51.386;-2.352;2022-07-06T00:47:32;15.30;99.90
39255;DHT22;24957;51.386;-2.352;2022-07-06T00:49:57;15.20;99.90
39255;DHT22;24957;51.386;-2.352;2022-07-06T00:52:42;15.10;99.90
39255;DHT22;24957;51.386;-2.352;2022-07-06T00:55:08;15.10;99.90
39255;DHT22;24957;51.386;-2.352;2022-07-06T00:57:34;15.10;99.90
39255;DHT22;24957;51.386;-2.352;2022-07-06T01:00:01;15.00;99.90
39255;DHT22;24957;51.386;-2.352;2022-07-06T01:02:29;15.00;99.90
39255;DHT22;24957;51.386;-2.352;2022-07-06T01:04:55;15.00;99.90
39255;DHT22;24957;51.386;-2.352;2022-07-06T01:07:20;15.00;99.90
39255;DHT22;24957;51.386;-2.352;2022-07-06T01:09:49;15.00;99.90
39255;DHT22;24957;51.386;-2.352;2022-07-06T01:12:15;15.00;99.90
39255;DHT22;24957;51.386;-2.352;2022-07-06T01:14:43;15.10;99.90
39255;DHT22;24957;51.386;-2.352;2022-07-06T01:17:10;15.10;99.90
39255;DHT22;24957;51.386;-2.352;2022-07-06T01:19:35;15.10;99.90
39255;DHT22;24957;51.386;-2.352;2022-07-06T01:22:03;15.10;99.90
39255;DHT22;24957;51.386;-2.352;2022-07-06T01:24:29;15.00;99.90
39255;DHT22;24957;51.386;-2.352;2022-07-06T01:26:54;14.90;99.90
39255;DHT22;24957;51.386;-2.352;2022-07-06T01:29:20;14.90;99.90
39255;DHT22;24957;51.386;-2.352;2022-07-06T01:31:46;14.90;99.90
39255;DHT22;24957;51.386;-2.352;2022-07-06T01:34:12;15.00;99.90
39255;DHT22;24957;51.386;-2.352;2022-07-06T01:36:38;15.00;99.90
39255;DHT22;24957;51.386;-2.352;2022-07-06T01:39:04;15.00;99.90
39255;DHT22;24957;51.386;-2.352;2022-07-06T01:41:29;15.00;99.90
39255;DHT22;24957;51.386;-2.352;2022-07-06T01:43:55;15.00;99.90
39255;DHT22;24957;51.386;-2.352;2022-07-06T01:46:21;15.00;99.90
39255;DHT22;24957;51.386;-2.352;2022-07-06T01:48:46;14.90;99.90
39255;DHT22;24957;51.386;-2.352;2022-07-06T01:51:12;14.70;99.90
39255;DHT22;24957;51.386;-2.352;2022-07-06T01:53:38;14.70;99.90
39255;DHT22;24957;51.386;-2.352;2022-07-06T01:56:04;14.80;99.90
39255;DHT22;24957;51.386;-2.352;2022-07-06T01:58:29;14.70;99.90
39255;DHT22;24957;51.386;-2.352;2022-07-06T02:00:55;14.70;99.90
39255;DHT22;24957;51.386;-2.352;2022-07-06T02:03:21;14.70;99.90
39255;DHT22;24957;51.386;-2.352;2022-07-06T02:05:46;14.80;99.90
39255;DHT22;24957;51.386;-2.352;2022-07-06T02:08:12;14.80;99.90
39255;DHT22;24957;51.386;-2.352;2022-07-06T02:10:38;14.80;99.90
39255;DHT22;24957;51.386;-2.352;2022-07-06T02:13:03;14.70;99.90
39255;DHT22;24957;51.386;-2.352;2022-07-06T02:15:29;14.60;99.90
39255;DHT22;24957;51.386;-2.352;2022-07-06T02:17:54;14.60;99.90
39255;DHT22;24957;51.386;-2.352;2022-07-06T02:20:20;14.70;99.90
39255;DHT22;24957;51.386;-2.352;2022-07-06T02:22:45;14.60;99.90
39255;DHT22;24957;51.386;-2.352;2022-07-06T02:25:12;14.60;99.90
39255;DHT22;24957;51.386;-2.352;2022-07-06T02:27:37;14.70;99.90
39255;DHT22;24957;51.386;-2.352;2022-07-06T02:30:03;14.70;99.90
39255;DHT22;24957;51.386;-2.352;2022-07-06T02:32:29;14.60;99.90
39255;DHT22;24957;51.386;-2.352;2022-07-06T02:34:55;14.50;99.90
39255;DHT22;24957;51.386;-2.352;2022-07-06T02:37:20;14.50;99.90
39255;DHT22;24957;51.386;-2.352;2022-07-06T02:39:46;14.70;99.90
39255;DHT22;24957;51.386;-2.352;2022-07-06T02:42:11;14.90;99.90
39255;DHT22;24957;51.386;-2.352;2022-07-06T02:44:37;15.00;99.90
39255;DHT22;24957;51.386;-2.352;2022-07-06T02:47:03;15.00;99.90
39255;DHT22;24957;51.386;-2.352;2022-07-06T02:49:28;15.10;99.90
39255;DHT22;24957;51.386;-2.352;2022-07-06T02:51:54;15.10;99.90
39255;DHT22;24957;51.386;-2.352;2022-07-06T02:54:20;15.10;99.90
39255;DHT22;24957;51.386;-2.352;2022-07-06T02:56:45;15.20;99.90
39255;DHT22;24957;51.386;-2.352;2022-07-06T02:59:16;15.20;99.90
39255;DHT22;24957;51.386;-2.352;2022-07-06T03:01:42;15.30;99.90
39255;DHT22;24957;51.386;-2.352;2022-07-06T03:04:07;15.30;99.90
39255;DHT22;24957;51.386;-2.352;2022-07-06T03:06:33;15.30;99.90
39255;DHT22;24957;51.386;-2.352;2022-07-06T03:08:58;15.40;99.90
39255;DHT22;24957;51.386;-2.352;2022-07-06T03:11:25;15.50;99.90
39255;DHT22;24957;51.386;-2.352;2022-07-06T03:13:50;15.50;99.90
39255;DHT22;24957;51.386;-2.352;2022-07-06T03:16:16;15.50;99.90
39255;DHT22;24957;51.386;-2.352;2022-07-06T03:18:45;15.50;99.90
39255;DHT22;24957;51.386;-2.352;2022-07-06T03:21:10;15.50;99.90
39255;DHT22;24957;51.386;-2.352;2022-07-06T03:23:36;15.60;99.90
39255;DHT22;24957;51.386;-2.352;2022-07-06T03:26:01;15.60;99.90
39255;DHT22;24957;51.386;-2.352;2022-07-06T03:28:27;15.60;99.90
39255;DHT22;24957;51.386;-2.352;2022-07-06T03:30:52;15.50;99.90
39255;DHT22;24957;51.386;-2.352;2022-07-06T03:33:18;15.60;99.90
39255;DHT22;24957;51.386;-2.352;2022-07-06T03:35:44;15.60;99.90
39255;DHT22;24957;51.386;-2.352;2022-07-06T03:38:09;15.60;99.90
39255;DHT22;24957;51.386;-2.352;2022-07-06T03:40:35;15.70;99.90
39255;DHT22;24957;51.386;-2.352;2022-07-06T03:43:00;15.60;99.90
39255;DHT22;24957;51.386;-2.352;2022-07-06T03:45:26;15.60;99.90
39255;DHT22;24957;51.386;-2.352;2022-07-06T03:47:51;15.60;99.90
39255;DHT22;24957;51.386;-2.352;2022-07-06T03:50:17;15.50;99.90
39255;DHT22;24957;51.386;-2.352;2022-07-06T03:52:42;15.60;99.90
39255;DHT22;24957;51.386;-2.352;2022-07-06T03:55:09;15.60;99.90
39255;DHT22;24957;51.386;-2.352;2022-07-06T03:57:35;15.50;99.90
39255;DHT22;24957;51.386;-2.352;2022-07-06T04:00:01;15.60;99.90
39255;DHT22;24957;51.386;-2.352;2022-07-06T04:02:26;15.70;99.90
39255;DHT22;24957;51.386;-2.352;2022-07-06T04:04:52;15.70;99.90
39255;DHT22;24957;51.386;-2.352;2022-07-06T04:07:18;15.60;99.90
39255;DHT22;24957;51.386;-2.352;2022-07-06T04:09:43;15.70;99.90
39255;DHT22;24957;51.386;-2.352;2022-07-06T04:12:09;15.70;99.90
39255;DHT22;24957;51.386;-2.352;2022-07-06T04:14:35;15.60;99.90
39255;DHT22;24957;51.386;-2.352;2022-07-06T04:17:00;15.70;99.90
39255;DHT22;24957;51.386;-2.352;2022-07-06T04:19:46;15.80;99.90
39255;DHT22;24957;51.386;-2.352;2022-07-06T04:22:11;15.80;99.90
39255;DHT22;24957;51.386;-2.352;2022-07-06T04:24:37;15.80;99.90
39255;DHT22;24957;51.386;-2.352;2022-07-06T04:27:03;15.90;99.90
39255;DHT22;24957;51.386;-2.352;2022-07-06T04:29:28;16.00;99.90
39255;DHT22;24957;51.386;-2.352;2022-07-06T04:31:54;15.90;99.90
39255;DHT22;24957;51.386;-2.352;2022-07-06T04:34:20;15.80;99.90
39255;DHT22;24957;51.386;-2.352;2022-07-06T04:36:45;15.70;99.90
39255;DHT22;24957;51.386;-2.352;2022-07-06T04:39:11;15.70;99.90
39255;DHT22;24957;51.386;-2.352;2022-07-06T04:41:37;15.80;99.90
39255;DHT22;24957;51.386;-2.352;2022-07-06T04:44:03;15.90;99.90
39255;DHT22;24957;51.386;-2.352;2022-07-06T04:46:28;15.90;99.90
39255;DHT22;24957;51.386;-2.352;2022-07-06T04:48:54;15.70;99.90
39255;DHT22;24957;51.386;-2.352;2022-07-06T04:51:20;15.70;99.90
39255;DHT22;24957;51.386;-2.352;2022-07-06T04:53:45;15.70;99.90
39255;DHT22;24957;51.386;-2.352;2022-07-06T04:56:12;15.80;99.90
39255;DHT22;24957;51.386;-2.352;2022-07-06T04:58:37;16.00;99.90
39255;DHT22;24957;51.386;-2.352;2022-07-06T05:01:03;16.10;99.90
39255;DHT22;24957;51.386;-2.352;2022-07-06T05:03:32;16.20;99.90
39255;DHT22;24957;51.386;-2.352;2022-07-06T05:06:00;16.30;99.90
39255;DHT22;24957;51.386;-2.352;2022-07-06T05:08:26;16.40;99.90
39255;DHT22;24957;51.386;-2.352;2022-07-06T05:10:51;16.40;99.90
39255;DHT22;24957;51.386;-2.352;2022-07-06T05:13:17;16.50;99.90
39255;DHT22;24957;51.386;-2.352;2022-07-06T05:15:43;16.50;99.90
39255;DHT22;24957;51.386;-2.352;2022-07-06T05:18:08;16.60;99.90
39255;DHT22;24957;51.386;-2.352;2022-07-06T05:20:34;16.60;99.90
39255;DHT22;24957;51.386;-2.352;2022-07-06T05:22:59;16.60;99.90
39255;DHT22;24957;51.386;-2.352;2022-07-06T05:25:25;16.60;99.90
39255;DHT22;24957;51.386;-2.352;2022-07-06T05:27:51;16.50;99.90
39255;DHT22;24957;51.386;-2.352;2022-07-06T05:30:16;16.50;99.90
39255;DHT22;24957;51.386;-2.352;2022-07-06T05:32:42;16.50;99.90
39255;DHT22;24957;51.386;-2.352;2022-07-06T05:35:08;16.50;99.90
39255;DHT22;24957;51.386;-2.352;2022-07-06T05:37:33;16.50;99.90
39255;DHT22;24957;51.386;-2.352;2022-07-06T05:39:59;16.50;99.90
39255;DHT22;24957;51.386;-2.352;2022-07-06T05:42:24;16.60;99.90
39255;DHT22;24957;51.386;-2.352;2022-07-06T05:44:54;16.60;99.90
39255;DHT22;24957;51.386;-2.352;2022-07-06T05:47:19;16.60;99.90
39255;DHT22;24957;51.386;-2.352;2022-07-06T05:50:03;16.60;99.90
39255;DHT22;24957;51.386;-2.352;2022-07-06T05:52:44;16.70;99.90
39255;DHT22;24957;51.386;-2.352;2022-07-06T05:55:13;16.90;99.90
39255;DHT22;24957;51.386;-2.352;2022-07-06T05:57:39;17.10;99.90
39255;DHT22;24957;51.386;-2.352;2022-07-06T06:00:05;17.20;99.90
39255;DHT22;24957;51.386;-2.352;2022-07-06T06:02:40;17.20;99.90
39255;DHT22;24957;51.386;-2.352;2022-07-06T06:05:07;17.30;99.90
39255;DHT22;24957;51.386;-2.352;2022-07-06T06:07:36;17.30;99.90
39255;DHT22;24957;51.386;-2.352;2022-07-06T06:10:09;17.30;99.90
39255;DHT22;24957;51.386;-2.352;2022-07-06T06:12:35;17.40;99.90
39255;DHT22;24957;51.386;-2.352;2022-07-06T06:15:01;17.30;99.90
39255;DHT22;24957;51.386;-2.352;2022-07-06T06:17:27;17.40;99.90
39255;DHT22;24957;51.386;-2.352;2022-07-06T06:19:52;17.50;99.90
39255;DHT22;24957;51.386;-2.352;2022-07-06T06:22:18;17.50;99.90
39255;DHT22;24957;51.386;-2.352;2022-07-06T06:24:44;17.70;99.90
39255;DHT22;24957;51.386;-2.352;2022-07-06T06:27:09;17.80;99.90
39255;DHT22;24957;51.386;-2.352;2022-07-06T06:29:35;17.90;99.90
39255;DHT22;24957;51.386;-2.352;2022-07-06T06:32:01;18.10;99.90
39255;DHT22;24957;51.386;-2.352;2022-07-06T06:34:26;18.20;99.90
39255;DHT22;24957;51.386;-2.352;2022-07-06T06:36:52;18.40;99.90
39255;DHT22;24957;51.386;-2.352;2022-07-06T06:39:17;18.50;99.90
39255;DHT22;24957;51.386;-2.352;2022-07-06T06:41:43;18.50;99.90
39255;DHT22;24957;51.386;-2.352;2022-07-06T06:44:08;18.70;99.90
39255;DHT22;24957;51.386;-2.352;2022-07-06T06:46:34;18.90;99.90
39255;DHT22;24957;51.386;-2.352;2022-07-06T06:48:59;19.00;99.90
39255;DHT22;24957;51.386;-2.352;2022-07-06T06:51:25;19.10;99.90
39255;DHT22;24957;51.386;-2.352;2022-07-06T06:53:51;19.10;99.90
39255;DHT22;24957;51.386;-2.352;2022-07-06T06:56:16;19.00;99.90
39255;DHT22;24957;51.386;-2.352;2022-07-06T06:58:42;18.90;99.90
39255;DHT22;24957;51.386;-2.352;2022-07-06T07:01:08;18.90;99.90
39255;DHT22;24957;51.386;-2.352;2022-07-06T07:03:33;18.90;99.90
39255;DHT22;24957;51.386;-2.352;2022-07-06T07:05:59;18.90;99.90
39255;DHT22;24957;51.386;-2.352;2022-07-06T07:08:25;18.90;99.90
39255;DHT22;24957;51.386;-2.352;2022-07-06T07:10:50;19.10;99.90
39255;DHT22;24957;51.386;-2.352;2022-07-06T07:13:16;19.00;99.90
39255;DHT22;24957;51.386;-2.352;2022-07-06T07:15:42;19.10;99.90
39255;DHT22;24957;51.386;-2.352;2022-07-06T07:18:08;19.10;99.90
39255;DHT22;24957;51.386;-2.352;2022-07-06T07:20:33;19.20;99.90
39255;DHT22;24957;51.386;-2.352;2022-07-06T07:22:59;19.20;99.90
39255;DHT22;24957;51.386;-2.352;2022-07-06T07:25:25;19.00;99.90
39255;DHT22;24957;51.386;-2.352;2022-07-06T07:27:51;19.10;99.90
39255;DHT22;24957;51.386;-2.352;2022-07-06T07:30:16;19.10;99.90
39255;DHT22;24957;51.386;-2.352;2022-07-06T07:32:42;19.20;99.90
39255;DHT22;24957;51.386;-2.352;2022-07-06T07:35:08;19.30;99.90
39255;DHT22;24957;51.386;-2.352;2022-07-06T07:37:34;19.20;99.90
39255;DHT22;24957;51.386;-2.352;2022-07-06T07:39:59;19.50;99.90
39255;DHT22;24957;51.386;-2.352;2022-07-06T07:42:25;19.50;99.90
39255;DHT22;24957;51.386;-2.352;2022-07-06T07:44:51;19.70;99.90
39255;DHT22;24957;51.386;-2.352;2022-07-06T07:47:16;19.70;99.90
39255;DHT22;24957;51.386;-2.352;2022-07-06T07:49:42;19.60;99.90
39255;DHT22;24957;51.386;-2.352;2022-07-06T07:52:08;19.50;99.90
39255;DHT22;24957;51.386;-2.352;2022-07-06T07:54:33;19.50;99.90
39255;DHT22;24957;51.386;-2.352;2022-07-06T07:56:59;19.40;99.90
39255;DHT22;24957;51.386;-2.352;2022-07-06T07:59:25;19.30;99.90
39255;DHT22;24957;51.386;-2.352;2022-07-06T08:01:51;19.40;99.90
39255;DHT22;24957;51.386;-2.352;2022-07-06T08:04:16;19.30;99.90
39255;DHT22;24957;51.386;-2.352;2022-07-06T08:06:42;19.40;99.90
39255;DHT22;24957;51.386;-2.352;2022-07-06T08:09:07;19.50;99.90
39255;DHT22;24957;51.386;-2.352;2022-07-06T08:11:33;19.50;99.90
39255;DHT22;24957;51.386;-2.352;2022-07-06T08:13:59;19.70;99.90
39255;DHT22;24957;51.386;-2.352;2022-07-06T08:16:25;19.70;99.90
39255;DHT22;24957;51.386;-2.352;2022-07-06T08:18:51;19.70;99.90
39255;DHT22;24957;51.386;-2.352;2022-07-06T08:21:16;19.80;99.90
39255;DHT22;24957;51.386;-2.352;2022-07-06T08:23:43;20.00;99.90
39255;DHT22;24957;51.386;-2.352;2022-07-06T08:26:09;20.20;99.90
39255;DHT22;24957;51.386;-2.352;2022-07-06T08:28:34;20.60;99.90
39255;DHT22;24957;51.386;-2.352;2022-07-06T08:31:00;20.70;99.90
39255;DHT22;24957;51.386;-2.352;2022-07-06T08:33:26;20.70;99.90
39255;DHT22;24957;51.386;-2.352;2022-07-06T08:35:51;20.60;99.90
39255;DHT22;24957;51.386;-2.352;2022-07-06T08:38:17;20.70;99.90
39255;DHT22;24957;51.386;-2.352;2022-07-06T08:40:43;20.90;99.90
39255;DHT22;24957;51.386;-2.352;2022-07-06T08:43:10;21.10;99.90
39255;DHT22;24957;51.386;-2.352;2022-07-06T08:45:37;21.00;99.90
39255;DHT22;24957;51.386;-2.352;2022-07-06T08:48:04;21.10;99.90
39255;DHT22;24957;51.386;-2.352;2022-07-06T08:50:30;21.30;99.90
39255;DHT22;24957;51.386;-2.352;2022-07-06T08:52:55;21.40;99.90
39255;DHT22;24957;51.386;-2.352;2022-07-06T08:55:21;21.70;99.90
39255;DHT22;24957;51.386;-2.352;2022-07-06T08:57:47;21.50;99.90
39255;DHT22;24957;51.386;-2.352;2022-07-06T09:00:13;21.50;99.90
39255;DHT22;24957;51.386;-2.352;2022-07-06T09:02:40;21.40;99.90
39255;DHT22;24957;51.386;-2.352;2022-07-06T09:05:06;21.40;99.90
39255;DHT22;24957;51.386;-2.352;2022-07-06T09:07:31;21.40;99.90
39255;DHT22;24957;51.386;-2.352;2022-07-06T09:09:58;21.40;99.90
39255;DHT22;24957;51.386;-2.352;2022-07-06T09:12:26;21.40;99.90
39255;DHT22;24957;51.386;-2.352;2022-07-06T09:14:51;21.30;99.90
39255;DHT22;24957;51.386;-2.352;2022-07-06T09:17:19;21.20;99.90
39255;DHT22;24957;51.386;-2.352;2022-07-06T09:19:45;21.10;99.90
39255;DHT22;24957;51.386;-2.352;2022-07-06T09:22:11;21.10;99.90
39255;DHT22;24957;51.386;-2.352;2022-07-06T09:24:49;21.20;99.90
39255;DHT22;24957;51.386;-2.352;2022-07-06T09:27:15;21.30;99.90
39255;DHT22;24957;51.386;-2.352;2022-07-06T09:29:42;21.00;99.90
39255;DHT22;24957;51.386;-2.352;2022-07-06T09:32:08;21.10;99.90
39255;DHT22;24957;51.386;-2.352;2022-07-06T09:34:40;21.00;99.90
39255;DHT22;24957;51.386;-2.352;2022-07-06T09:37:06;21.10;99.90
39255;DHT22;24957;51.386;-2.352;2022-07-06T09:39:32;20.80;99.90
39255;DHT22;24957;51.386;-2.352;2022-07-06T09:41:58;20.80;99.90
39255;DHT22;24957;51.386;-2.352;2022-07-06T09:44:25;20.80;99.90
39255;DHT22;24957;51.386;-2.352;2022-07-06T09:46:52;20.80;99.90
39255;DHT22;24957;51.386;-2.352;2022-07-06T09:49:18;20.80;99.90
39255;DHT22;24957;51.386;-2.352;2022-07-06T09:51:44;21.00;99.90
39255;DHT22;24957;51.386;-2.352;2022-07-06T09:54:11;21.10;99.90
39255;DHT22;24957;51.386;-2.352;2022-07-06T09:56:40;21.30;99.90
39255;DHT22;24957;51.386;-2.352;2022-07-06T09:59:13;21.20;99.90
39255;DHT22;24957;51.386;-2.352;2022-07-06T10:01:38;21.10;99.90
39255;DHT22;24957;51.386;-2.352;2022-07-06T10:04:05;21.20;99.90
39255;DHT22;24957;51.386;-2.352;2022-07-06T10:06:31;21.30;99.90
39255;DHT22;24957;51.386;-2.352;2022-07-06T10:08:57;21.20;99.90
39255;DHT22;24957;51.386;-2.352;2022-07-06T10:11:23;21.30;99.90
39255;DHT22;24957;51.386;-2.352;2022-07-06T10:13:54;21.50;99.90
39255;DHT22;24957;51.386;-2.352;2022-07-06T10:16:25;21.60;99.90
39255;DHT22;24957;51.386;-2.352;2022-07-06T10:18:51;21.90;99.90
39255;DHT22;24957;51.386;-2.352;2022-07-06T10:21:19;22.00;99.90
39255;DHT22;24957;51.386;-2.352;2022-07-06T10:23:46;21.90;99.90
39255;DHT22;24957;51.386;-2.352;2022-07-06T10:26:12;21.60;99.90
39255;DHT22;24957;51.386;-2.352;2022-07-06T10:28:38;21.70;99.90
39255;DHT22;24957;51.386;-2.352;2022-07-06T10:31:04;21.40;99.90
39255;DHT22;24957;51.386;-2.352;2022-07-06T10:33:30;21.50;99.90
39255;DHT22;24957;51.386;-2.352;2022-07-06T10:35:56;21.40;99.90
39255;DHT22;24957;51.386;-2.352;2022-07-06T10:38:29;21.30;99.90
39255;DHT22;24957;51.386;-2.352;2022-07-06T10:40:58;21.50;99.90
39255;DHT22;24957;51.386;-2.352;2022-07-06T10:43:39;21.80;99.90
39255;DHT22;24957;51.386;-2.352;2022-07-06T10:46:08;22.00;99.90
39255;DHT22;24957;51.386;-2.352;2022-07-06T10:48:34;22.10;99.90
39255;DHT22;24957;51.386;-2.352;2022-07-06T10:51:00;22.40;99.90
39255;DHT22;24957;51.386;-2.352;2022-07-06T10:53:29;22.30;99.90
39255;DHT22;24957;51.386;-2.352;2022-07-06T10:55:55;22.30;99.90
39255;DHT22;24957;51.386;-2.352;2022-07-06T10:58:41;22.20;99.90
39255;DHT22;24957;51.386;-2.352;2022-07-06T11:01:10;22.10;99.90
39255;DHT22;24957;51.386;-2.352;2022-07-06T11:03:52;22.00;99.90
39255;DHT22;24957;51.386;-2.352;2022-07-06T11:06:33;22.00;99.90
39255;DHT22;24957;51.386;-2.352;2022-07-06T11:09:00;22.30;99.90
39255;DHT22;24957;51.386;-2.352;2022-07-06T11:14:18;22.70;99.90
39255;DHT22;24957;51.386;-2.352;2022-07-06T11:19:18;22.50;97.60
39255;DHT22;24957;51.386;-2.352;2022-07-06T11:24:11;22.30;99.30
39255;DHT22;24957;51.386;-2.352;2022-07-06T11:26:39;22.20;98.60
39255;DHT22;24957;51.386;-2.352;2022-07-06T11:29:07;22.10;98.70
39255;DHT22;24957;51.386;-2.352;2022-07-06T11:31:33;22.00;99.30
39255;DHT22;24957;51.386;-2.352;2022-07-06T11:36:44;22.10;99.00
39255;DHT22;24957;51.386;-2.352;2022-07-06T11:39:10;22.20;98.20
39255;DHT22;24957;51.386;-2.352;2022-07-06T11:41:35;22.30;97.80
39255;DHT22;24957;51.386;-2.352;2022-07-06T11:44:02;22.40;97.40
39255;DHT22;24957;51.386;-2.352;2022-07-06T11:46:29;22.40;97.80
39255;DHT22;24957;51.386;-2.352;2022-07-06T11:48:55;22.20;97.70
39255;DHT22;24957;51.386;-2.352;2022-07-06T11:51:22;22.30;97.40
39255;DHT22;24957;51.386;-2.352;2022-07-06T11:53:49;22.30;98.20
39255;DHT22;24957;51.386;-2.352;2022-07-06T11:56:15;22.50;97.70
39255;DHT22;24957;51.386;-2.352;2022-07-06T11:58:42;22.70;96.70
39255;DHT22;24957;51.386;-2.352;2022-07-06T12:01:10;22.80;95.90
39255;DHT22;24957;51.386;-2.352;2022-07-06T12:03:36;22.80;95.90
39255;DHT22;24957;51.386;-2.352;2022-07-06T12:06:05;22.80;96.30
39255;DHT22;24957;51.386;-2.352;2022-07-06T12:08:31;22.90;96.00
39255;DHT22;24957;51.386;-2.352;2022-07-06T12:10:59;22.70;95.70
39255;DHT22;24957;51.386;-2.352;2022-07-06T12:13:25;22.60;95.70
39255;DHT22;24957;51.386;-2.352;2022-07-06T12:15:50;22.40;94.90
39255;DHT22;24957;51.386;-2.352;2022-07-06T12:18:16;22.20;95.60
39255;DHT22;24957;51.386;-2.352;2022-07-06T12:20:42;22.40;95.80
39255;DHT22;24957;51.386;-2.352;2022-07-06T12:23:11;22.50;96.00
39255;DHT22;24957;51.386;-2.352;2022-07-06T12:25:36;22.60;95.80
39255;DHT22;24957;51.386;-2.352;2022-07-06T12:28:02;22.80;95.20
39255;DHT22;24957;51.386;-2.352;2022-07-06T12:30:32;23.00;94.50
39255;DHT22;24957;51.386;-2.352;2022-07-06T12:33:14;23.00;94.40
39255;DHT22;24957;51.386;-2.352;2022-07-06T12:35:44;23.20;93.30
39255;DHT22;24957;51.386;-2.352;2022-07-06T12:38:10;22.90;93.00
39255;DHT22;24957;51.386;-2.352;2022-07-06T12:40:36;22.80;93.80
39255;DHT22;24957;51.386;-2.352;2022-07-06T12:43:05;23.00;93.30
39255;DHT22;24957;51.386;-2.352;2022-07-06T12:45:30;23.20;92.80
39255;DHT22;24957;51.386;-2.352;2022-07-06T12:48:00;23.00;93.40
39255;DHT22;24957;51.386;-2.352;2022-07-06T12:50:38;22.70;94.00
39255;DHT22;24957;51.386;-2.352;2022-07-06T12:53:05;22.80;94.10
39255;DHT22;24957;51.386;-2.352;2022-07-06T12:55:31;22.90;94.20
39255;DHT22;24957;51.386;-2.352;2022-07-06T12:57:57;22.80;94.20
39255;DHT22;24957;51.386;-2.352;2022-07-06T13:00:23;22.80;94.40
39255;DHT22;24957;51.386;-2.352;2022-07-06T13:02:50;23.10;93.80
39255;DHT22;24957;51.386;-2.352;2022-07-06T13:05:22;23.10;93.90
39255;DHT22;24957;51.386;-2.352;2022-07-06T13:07:54;23.40;93.20
39255;DHT22;24957;51.386;-2.352;2022-07-06T13:10:20;23.40;92.60
39255;DHT22;24957;51.386;-2.352;2022-07-06T13:12:46;23.30;93.10
39255;DHT22;24957;51.386;-2.352;2022-07-06T13:15:12;23.20;93.60
39255;DHT22;24957;51.386;-2.352;2022-07-06T13:17:38;23.40;93.50
39255;DHT22;24957;51.386;-2.352;2022-07-06T13:20:10;23.50;93.60
39255;DHT22;24957;51.386;-2.352;2022-07-06T13:22:36;23.80;93.30
39255;DHT22;24957;51.386;-2.352;2022-07-06T13:25:02;23.70;93.20
39255;DHT22;24957;51.386;-2.352;2022-07-06T13:27:28;23.60;93.10
39255;DHT22;24957;51.386;-2.352;2022-07-06T13:29:54;23.40;93.20
39255;DHT22;24957;51.386;-2.352;2022-07-06T13:32:19;23.20;93.30
39255;DHT22;24957;51.386;-2.352;2022-07-06T13:34:45;23.20;93.80
39255;DHT22;24957;51.386;-2.352;2022-07-06T13:37:10;23.50;93.20
39255;DHT22;24957;51.386;-2.352;2022-07-06T13:39:36;23.40;93.00
39255;DHT22;24957;51.386;-2.352;2022-07-06T13:42:01;23.10;93.80
39255;DHT22;24957;51.386;-2.352;2022-07-06T13:44:27;23.10;93.80
39255;DHT22;24957;51.386;-2.352;2022-07-06T13:46:53;23.20;93.90
39255;DHT22;24957;51.386;-2.352;2022-07-06T13:49:18;23.10;94.10
39255;DHT22;24957;51.386;-2.352;2022-07-06T13:51:44;23.20;94.30
39255;DHT22;24957;51.386;-2.352;2022-07-06T13:54:10;23.40;94.10
39255;DHT22;24957;51.386;-2.352;2022-07-06T13:56:36;23.40;94.90
39255;DHT22;24957;51.386;-2.352;2022-07-06T13:59:02;23.40;95.30
39255;DHT22;24957;51.386;-2.352;2022-07-06T14:01:31;23.20;96.00
39255;DHT22;24957;51.386;-2.352;2022-07-06T14:03:56;23.20;96.30
39255;DHT22;24957;51.386;-2.352;2022-07-06T14:06:22;23.30;96.10
39255;DHT22;24957;51.386;-2.352;2022-07-06T14:08:48;23.40;95.10
39255;DHT22;24957;51.386;-2.352;2022-07-06T14:11:13;23.20;95.50
39255;DHT22;24957;51.386;-2.352;2022-07-06T14:13:39;23.20;95.30
39255;DHT22;24957;51.386;-2.352;2022-07-06T14:16:05;23.20;94.80
39255;DHT22;24957;51.386;-2.352;2022-07-06T14:18:30;23.20;95.00
39255;DHT22;24957;51.386;-2.352;2022-07-06T14:20:56;23.20;94.90
39255;DHT22;24957;51.386;-2.352;2022-07-06T14:23:25;23.10;95.60
39255;DHT22;24957;51.386;-2.352;2022-07-06T14:25:51;22.90;95.90
39255;DHT22;24957;51.386;-2.352;2022-07-06T14:28:17;22.90;95.90
39255;DHT22;24957;51.386;-2.352;2022-07-06T14:30:43;23.10;95.90
39255;DHT22;24957;51.386;-2.352;2022-07-06T14:33:12;23.10;95.60
39255;DHT22;24957;51.386;-2.352;2022-07-06T14:35:39;23.30;94.60
39255;DHT22;24957;51.386;-2.352;2022-07-06T14:38:05;23.50;93.80
39255;DHT22;24957;51.386;-2.352;2022-07-06T14:40:31;23.20;94.50
39255;DHT22;24957;51.386;-2.352;2022-07-06T14:42:57;23.10;95.30
39255;DHT22;24957;51.386;-2.352;2022-07-06T14:45:26;23.30;94.60
39255;DHT22;24957;51.386;-2.352;2022-07-06T14:47:52;23.20;94.40
39255;DHT22;24957;51.386;-2.352;2022-07-06T14:52:54;23.20;94.70
39255;DHT22;24957;51.386;-2.352;2022-07-06T14:55:20;23.10;95.20
39255;DHT22;24957;51.386;-2.352;2022-07-06T14:57:46;23.40;95.10
39255;DHT22;24957;51.386;-2.352;2022-07-06T15:00:12;24.20;93.30
39255;DHT22;24957;51.386;-2.352;2022-07-06T15:02:38;24.40;92.40
39255;DHT22;24957;51.386;-2.352;2022-07-06T15:05:04;24.20;92.70
39255;DHT22;24957;51.386;-2.352;2022-07-06T15:07:30;24.10;93.30
39255;DHT22;24957;51.386;-2.352;2022-07-06T15:09:56;24.40;92.10
39255;DHT22;24957;51.386;-2.352;2022-07-06T15:12:25;25.20;90.90
39255;DHT22;24957;51.386;-2.352;2022-07-06T15:14:50;25.90;88.70
39255;DHT22;24957;51.386;-2.352;2022-07-06T15:17:16;26.60;85.20
39255;DHT22;24957;51.386;-2.352;2022-07-06T15:19:45;27.30;82.40
39255;DHT22;24957;51.386;-2.352;2022-07-06T15:22:15;26.80;83.70
39255;DHT22;24957;51.386;-2.352;2022-07-06T15:24:40;26.40;84.60
39255;DHT22;24957;51.386;-2.352;2022-07-06T15:27:09;25.60;86.60